sensor_id;sensor_type;location;lat;lon;timestamp;P1;durP1;ratioP1;P2;durP2;ratioP2
5638;SDS011;2841;44.526;11.360;2023-05-16T00:02:14;8.87;;;5.13;;
5638;SDS011;2841;44.526;11.360;2023-05-16T00:04:41;5.93;;;3.57;;
5638;SDS011;2841;44.526;11.360;2023-05-16T00:07:08;6.97;;;4.27;;
5638;SDS011;2841;44.526;11.360;2023-05-16T00:09:37;7.17;;;4.37;;
5638;SDS011;2841;44.526;11.360;2023-05-16T00:12:04;6.30;;;4.70;;
5638;SDS011;2841;44.526;11.360;2023-05-16T00:14:32;6.10;;;4.00;;
5638;SDS011;2841;44.526;11.360;2023-05-16T00:17:00;5.97;;;4.43;;
5638;SDS011;2841;44.526;11.360;2023-05-16T00:19:35;9.40;;;4.40;;
5638;SDS011;2841;44.526;11.360;2023-05-16T00:22:03;7.60;;;4.70;;
5638;SDS011;2841;44.526;11.360;2023-05-16T00:24:30;5.10;;;3.93;;
5638;SDS011;2841;44.526;11.360;2023-05-16T00:26:59;5.17;;;3.87;;
5638;SDS011;2841;44.526;11.360;2023-05-16T00:29:26;4.63;;;3.37;;
5638;SDS011;2841;44.526;11.360;2023-05-16T00:31:52;5.33;;;3.93;;
5638;SDS011;2841;44.526;11.360;2023-05-16T00:34:20;8.13;;;4.43;;
5638;SDS011;2841;44.526;11.360;2023-05-16T00:36:47;6.00;;;3.90;;
5638;SDS011;2841;44.526;11.360;2023-05-16T00:39:15;5.50;;;4.00;;
5638;SDS011;2841;44.526;11.360;2023-05-16T00:41:42;5.83;;;3.63;;
5638;SDS011;2841;44.526;11.360;2023-05-16T00:44:10;6.47;;;3.30;;
5638;SDS011;2841;44.526;11.360;2023-05-16T00:46:37;6.10;;;3.20;;
5638;SDS011;2841;44.526;11.360;2023-05-16T00:49:04;6.80;;;3.00;;
5638;SDS011;2841;44.526;11.360;2023-05-16T00:51:31;6.80;;;3.27;;
5638;SDS011;2841;44.526;11.360;2023-05-16T00:53:59;5.60;;;3.40;;
5638;SDS011;2841;44.526;11.360;2023-05-16T00:56:27;4.20;;;3.27;;
5638;SDS011;2841;44.526;11.360;2023-05-16T00:58:54;8.30;;;3.37;;
5638;SDS011;2841;44.526;11.360;2023-05-16T01:01:22;6.57;;;2.83;;
5638;SDS011;2841;44.526;11.360;2023-05-16T01:03:51;5.23;;;3.17;;
5638;SDS011;2841;44.526;11.360;2023-05-16T01:06:19;5.73;;;3.13;;
5638;SDS011;2841;44.526;11.360;2023-05-16T01:08:46;8.10;;;3.10;;
5638;SDS011;2841;44.526;11.360;2023-05-16T01:11:15;4.30;;;2.80;;
5638;SDS011;2841;44.526;11.360;2023-05-16T01:13:53;4.37;;;3.33;;
5638;SDS011;2841;44.526;11.360;2023-05-16T01:16:42;5.97;;;2.90;;
5638;SDS011;2841;44.526;11.360;2023-05-16T01:19:18;4.60;;;2.80;;
5638;SDS011;2841;44.526;11.360;2023-05-16T01:21:59;8.20;;;3.10;;
5638;SDS011;2841;44.526;11.360;2023-05-16T01:24:32;9.77;;;3.40;;
5638;SDS011;2841;44.526;11.360;2023-05-16T01:27:05;7.30;;;2.50;;
5638;SDS011;2841;44.526;11.360;2023-05-16T01:29:33;5.40;;;3.00;;
5638;SDS011;2841;44.526;11.360;2023-05-16T01:32:00;5.53;;;2.50;;
5638;SDS011;2841;44.526;11.360;2023-05-16T01:34:27;5.00;;;2.50;;
5638;SDS011;2841;44.526;11.360;2023-05-16T01:36:56;5.30;;;3.00;;
5638;SDS011;2841;44.526;11.360;2023-05-16T01:39:32;6.10;;;2.30;;
5638;SDS011;2841;44.526;11.360;2023-05-16T01:42:03;5.07;;;2.23;;
5638;SDS011;2841;44.526;11.360;2023-05-16T01:44:34;5.33;;;3.10;;
5638;SDS011;2841;44.526;11.360;2023-05-16T01:47:12;6.30;;;3.03;;
5638;SDS011;2841;44.526;11.360;2023-05-16T01:49:42;3.93;;;2.97;;
5638;SDS011;2841;44.526;11.360;2023-05-16T01:52:17;4.97;;;2.97;;
5638;SDS011;2841;44.526;11.360;2023-05-16T01:54:47;5.13;;;3.07;;
5638;SDS011;2841;44.526;11.360;2023-05-16T01:57:19;5.87;;;3.70;;
5638;SDS011;2841;44.526;11.360;2023-05-16T01:59:51;6.23;;;3.20;;
5638;SDS011;2841;44.526;11.360;2023-05-16T02:02:18;5.07;;;2.70;;
5638;SDS011;2841;44.526;11.360;2023-05-16T02:04:45;4.87;;;3.00;;
5638;SDS011;2841;44.526;11.360;2023-05-16T02:07:12;9.53;;;3.80;;
5638;SDS011;2841;44.526;11.360;2023-05-16T02:09:39;6.93;;;3.30;;
5638;SDS011;2841;44.526;11.360;2023-05-16T02:12:06;4.90;;;2.40;;
5638;SDS011;2841;44.526;11.360;2023-05-16T02:14:35;5.23;;;3.17;;
5638;SDS011;2841;44.526;11.360;2023-05-16T02:17:02;9.83;;;3.00;;
5638;SDS011;2841;44.526;11.360;2023-05-16T02:19:30;6.43;;;3.07;;
5638;SDS011;2841;44.526;11.360;2023-05-16T02:21:56;5.50;;;2.90;;
5638;SDS011;2841;44.526;11.360;2023-05-16T02:24:23;8.57;;;2.97;;
5638;SDS011;2841;44.526;11.360;2023-05-16T02:26:50;9.77;;;3.13;;
5638;SDS011;2841;44.526;11.360;2023-05-16T02:29:17;4.77;;;2.10;;
5638;SDS011;2841;44.526;11.360;2023-05-16T02:31:45;4.07;;;2.13;;
5638;SDS011;2841;44.526;11.360;2023-05-16T02:34:12;3.13;;;2.10;;
5638;SDS011;2841;44.526;11.360;2023-05-16T02:36:39;4.60;;;2.33;;
5638;SDS011;2841;44.526;11.360;2023-05-16T02:39:06;3.13;;;1.90;;
5638;SDS011;2841;44.526;11.360;2023-05-16T02:41:34;3.50;;;2.00;;
5638;SDS011;2841;44.526;11.360;2023-05-16T02:44:01;5.30;;;2.10;;
5638;SDS011;2841;44.526;11.360;2023-05-16T02:46:28;9.10;;;2.20;;
5638;SDS011;2841;44.526;11.360;2023-05-16T02:48:57;11.00;;;1.87;;
5638;SDS011;2841;44.526;11.360;2023-05-16T02:51:26;6.80;;;1.60;;
5638;SDS011;2841;44.526;11.360;2023-05-16T02:53:54;6.33;;;1.30;;
5638;SDS011;2841;44.526;11.360;2023-05-16T02:56:23;3.53;;;0.90;;
5638;SDS011;2841;44.526;11.360;2023-05-16T02:58:52;6.57;;;1.20;;
5638;SDS011;2841;44.526;11.360;2023-05-16T03:01:19;2.83;;;0.90;;
5638;SDS011;2841;44.526;11.360;2023-05-16T03:03:46;1.90;;;0.70;;
5638;SDS011;2841;44.526;11.360;2023-05-16T03:06:15;6.03;;;0.87;;
5638;SDS011;2841;44.526;11.360;2023-05-16T03:08:41;3.20;;;1.40;;
5638;SDS011;2841;44.526;11.360;2023-05-16T03:11:08;11.60;;;0.90;;
5638;SDS011;2841;44.526;11.360;2023-05-16T03:13:35;2.60;;;0.97;;
5638;SDS011;2841;44.526;11.360;2023-05-16T03:16:02;4.13;;;1.10;;
5638;SDS011;2841;44.526;11.360;2023-05-16T03:18:30;6.13;;;1.10;;
5638;SDS011;2841;44.526;11.360;2023-05-16T03:20:58;10.50;;;1.10;;
5638;SDS011;2841;44.526;11.360;2023-05-16T03:23:27;3.67;;;0.90;;
5638;SDS011;2841;44.526;11.360;2023-05-16T03:25:54;10.13;;;1.60;;
5638;SDS011;2841;44.526;11.360;2023-05-16T03:28:21;4.53;;;1.77;;
5638;SDS011;2841;44.526;11.360;2023-05-16T03:30:48;7.97;;;0.80;;
5638;SDS011;2841;44.526;11.360;2023-05-16T03:33:15;4.23;;;2.00;;
5638;SDS011;2841;44.526;11.360;2023-05-16T03:35:43;5.40;;;1.07;;
5638;SDS011;2841;44.526;11.360;2023-05-16T03:38:11;2.37;;;0.93;;
5638;SDS011;2841;44.526;11.360;2023-05-16T03:40:39;3.20;;;1.13;;
5638;SDS011;2841;44.526;11.360;2023-05-16T03:43:07;3.20;;;1.10;;
5638;SDS011;2841;44.526;11.360;2023-05-16T03:45:34;2.10;;;1.30;;
5638;SDS011;2841;44.526;11.360;2023-05-16T03:48:01;4.07;;;2.03;;
5638;SDS011;2841;44.526;11.360;2023-05-16T03:50:28;5.37;;;2.10;;
5638;SDS011;2841;44.526;11.360;2023-05-16T03:52:55;5.57;;;1.80;;
5638;SDS011;2841;44.526;11.360;2023-05-16T03:55:22;2.17;;;1.20;;
5638;SDS011;2841;44.526;11.360;2023-05-16T03:57:50;5.60;;;1.33;;
5638;SDS011;2841;44.526;11.360;2023-05-16T04:00:17;2.47;;;1.00;;
5638;SDS011;2841;44.526;11.360;2023-05-16T04:02:44;4.57;;;1.20;;
5638;SDS011;2841;44.526;11.360;2023-05-16T04:05:11;4.83;;;1.00;;
5638;SDS011;2841;44.526;11.360;2023-05-16T04:07:38;2.73;;;0.87;;
5638;SDS011;2841;44.526;11.360;2023-05-16T04:10:06;2.63;;;1.20;;
5638;SDS011;2841;44.526;11.360;2023-05-16T04:12:34;8.43;;;1.00;;
5638;SDS011;2841;44.526;11.360;2023-05-16T04:15:03;8.43;;;1.20;;
5638;SDS011;2841;44.526;11.360;2023-05-16T04:17:30;3.47;;;0.90;;
5638;SDS011;2841;44.526;11.360;2023-05-16T04:19:57;4.10;;;0.80;;
5638;SDS011;2841;44.526;11.360;2023-05-16T04:22:25;3.77;;;1.47;;
5638;SDS011;2841;44.526;11.360;2023-05-16T04:24:52;3.60;;;1.10;;
5638;SDS011;2841;44.526;11.360;2023-05-16T04:27:19;3.57;;;1.30;;
5638;SDS011;2841;44.526;11.360;2023-05-16T04:29:46;3.03;;;1.30;;
5638;SDS011;2841;44.526;11.360;2023-05-16T04:32:14;3.90;;;1.40;;
5638;SDS011;2841;44.526;11.360;2023-05-16T04:34:41;2.30;;;1.13;;
5638;SDS011;2841;44.526;11.360;2023-05-16T04:37:10;12.10;;;1.33;;
5638;SDS011;2841;44.526;11.360;2023-05-16T04:39:37;3.20;;;0.90;;
5638;SDS011;2841;44.526;11.360;2023-05-16T04:42:05;11.10;;;1.60;;
5638;SDS011;2841;44.526;11.360;2023-05-16T04:44:32;5.33;;;1.30;;
5638;SDS011;2841;44.526;11.360;2023-05-16T04:46:59;2.67;;;1.40;;
5638;SDS011;2841;44.526;11.360;2023-05-16T04:49:28;10.87;;;1.67;;
5638;SDS011;2841;44.526;11.360;2023-05-16T04:51:55;5.00;;;1.33;;
5638;SDS011;2841;44.526;11.360;2023-05-16T04:54:22;5.03;;;1.33;;
5638;SDS011;2841;44.526;11.360;2023-05-16T04:56:48;4.33;;;1.30;;
5638;SDS011;2841;44.526;11.360;2023-05-16T04:59:15;2.80;;;0.90;;
5638;SDS011;2841;44.526;11.360;2023-05-16T05:01:42;4.10;;;1.57;;
5638;SDS011;2841;44.526;11.360;2023-05-16T05:04:09;3.60;;;1.40;;
5638;SDS011;2841;44.526;11.360;2023-05-16T05:06:37;9.87;;;1.17;;
5638;SDS011;2841;44.526;11.360;2023-05-16T05:09:05;3.30;;;1.47;;
5638;SDS011;2841;44.526;11.360;2023-05-16T05:11:32;4.60;;;1.20;;
5638;SDS011;2841;44.526;11.360;2023-05-16T05:13:59;6.17;;;1.70;;
5638;SDS011;2841;44.526;11.360;2023-05-16T05:16:26;3.70;;;1.80;;
5638;SDS011;2841;44.526;11.360;2023-05-16T05:18:53;4.37;;;2.77;;
5638;SDS011;2841;44.526;11.360;2023-05-16T05:21:20;5.10;;;2.20;;
5638;SDS011;2841;44.526;11.360;2023-05-16T05:23:50;16.43;;;2.00;;
5638;SDS011;2841;44.526;11.360;2023-05-16T05:26:17;5.13;;;1.53;;
5638;SDS011;2841;44.526;11.360;2023-05-16T05:28:46;6.57;;;1.70;;
5638;SDS011;2841;44.526;11.360;2023-05-16T05:31:13;8.77;;;1.90;;
5638;SDS011;2841;44.526;11.360;2023-05-16T05:33:40;9.00;;;1.97;;
5638;SDS011;2841;44.526;11.360;2023-05-16T05:36:07;5.07;;;2.00;;
5638;SDS011;2841;44.526;11.360;2023-05-16T05:38:35;5.57;;;2.00;;
5638;SDS011;2841;44.526;11.360;2023-05-16T05:41:03;3.77;;;1.80;;
5638;SDS011;2841;44.526;11.360;2023-05-16T05:43:31;6.27;;;1.90;;
5638;SDS011;2841;44.526;11.360;2023-05-16T05:45:58;6.60;;;1.50;;
5638;SDS011;2841;44.526;11.360;2023-05-16T05:48:25;3.67;;;1.67;;
5638;SDS011;2841;44.526;11.360;2023-05-16T05:50:54;7.77;;;2.17;;
5638;SDS011;2841;44.526;11.360;2023-05-16T05:53:21;5.20;;;2.20;;
5638;SDS011;2841;44.526;11.360;2023-05-16T05:55:48;4.77;;;2.40;;
5638;SDS011;2841;44.526;11.360;2023-05-16T05:58:16;3.43;;;1.93;;
5638;SDS011;2841;44.526;11.360;2023-05-16T06:00:43;8.40;;;2.60;;
5638;SDS011;2841;44.526;11.360;2023-05-16T06:03:10;10.60;;;3.00;;
5638;SDS011;2841;44.526;11.360;2023-05-16T06:05:37;5.20;;;1.87;;
5638;SDS011;2841;44.526;11.360;2023-05-16T06:08:04;10.23;;;2.20;;
5638;SDS011;2841;44.526;11.360;2023-05-16T06:10:31;9.50;;;2.95;;
5638;SDS011;2841;44.526;11.360;2023-05-16T06:12:57;4.07;;;1.90;;
5638;SDS011;2841;44.526;11.360;2023-05-16T06:15:26;5.03;;;1.87;;
5638;SDS011;2841;44.526;11.360;2023-05-16T06:17:53;4.10;;;2.03;;
5638;SDS011;2841;44.526;11.360;2023-05-16T06:20:20;3.83;;;1.93;;
5638;SDS011;2841;44.526;11.360;2023-05-16T06:22:47;7.30;;;2.45;;
5638;SDS011;2841;44.526;11.360;2023-05-16T06:25:14;7.67;;;2.93;;
5638;SDS011;2841;44.526;11.360;2023-05-16T06:27:41;4.07;;;2.60;;
5638;SDS011;2841;44.526;11.360;2023-05-16T06:30:08;5.00;;;2.00;;
5638;SDS011;2841;44.526;11.360;2023-05-16T06:32:37;5.30;;;1.77;;
5638;SDS011;2841;44.526;11.360;2023-05-16T06:35:05;7.17;;;2.37;;
5638;SDS011;2841;44.526;11.360;2023-05-16T06:37:32;7.80;;;1.60;;
5638;SDS011;2841;44.526;11.360;2023-05-16T06:39:59;7.23;;;2.00;;
5638;SDS011;2841;44.526;11.360;2023-05-16T06:42:26;3.27;;;1.80;;
5638;SDS011;2841;44.526;11.360;2023-05-16T06:44:53;3.47;;;1.90;;
5638;SDS011;2841;44.526;11.360;2023-05-16T06:47:20;4.87;;;1.80;;
5638;SDS011;2841;44.526;11.360;2023-05-16T06:49:49;3.47;;;1.63;;
5638;SDS011;2841;44.526;11.360;2023-05-16T06:52:16;11.97;;;2.03;;
5638;SDS011;2841;44.526;11.360;2023-05-16T06:54:43;8.57;;;2.50;;
5638;SDS011;2841;44.526;11.360;2023-05-16T06:57:10;3.27;;;1.23;;
5638;SDS011;2841;44.526;11.360;2023-05-16T06:59:37;3.83;;;1.63;;
5638;SDS011;2841;44.526;11.360;2023-05-16T07:02:04;4.67;;;2.13;;
5638;SDS011;2841;44.526;11.360;2023-05-16T07:04:33;4.83;;;2.00;;
5638;SDS011;2841;44.526;11.360;2023-05-16T07:07:03;5.63;;;1.90;;
5638;SDS011;2841;44.526;11.360;2023-05-16T07:09:31;4.73;;;2.80;;
5638;SDS011;2841;44.526;11.360;2023-05-16T07:11:58;8.03;;;1.67;;
5638;SDS011;2841;44.526;11.360;2023-05-16T07:14:26;4.73;;;2.67;;
5638;SDS011;2841;44.526;11.360;2023-05-16T07:16:53;3.47;;;1.80;;
5638;SDS011;2841;44.526;11.360;2023-05-16T07:19:20;7.73;;;2.50;;
5638;SDS011;2841;44.526;11.360;2023-05-16T07:21:47;7.63;;;2.50;;
5638;SDS011;2841;44.526;11.360;2023-05-16T07:24:16;5.27;;;2.70;;
5638;SDS011;2841;44.526;11.360;2023-05-16T07:26:43;4.50;;;2.20;;
5638;SDS011;2841;44.526;11.360;2023-05-16T07:29:10;4.10;;;2.23;;
5638;SDS011;2841;44.526;11.360;2023-05-16T07:31:37;3.60;;;2.23;;
5638;SDS011;2841;44.526;11.360;2023-05-16T07:34:04;3.83;;;2.10;;
5638;SDS011;2841;44.526;11.360;2023-05-16T07:36:32;5.43;;;2.27;;
5638;SDS011;2841;44.526;11.360;2023-05-16T07:38:59;4.80;;;2.53;;
5638;SDS011;2841;44.526;11.360;2023-05-16T07:41:27;8.40;;;3.80;;
5638;SDS011;2841;44.526;11.360;2023-05-16T07:43:54;5.23;;;2.40;;
5638;SDS011;2841;44.526;11.360;2023-05-16T07:46:21;4.10;;;2.20;;
5638;SDS011;2841;44.526;11.360;2023-05-16T07:48:48;6.00;;;2.33;;
5638;SDS011;2841;44.526;11.360;2023-05-16T07:51:15;7.23;;;3.30;;
5638;SDS011;2841;44.526;11.360;2023-05-16T07:53:41;4.43;;;2.40;;
5638;SDS011;2841;44.526;11.360;2023-05-16T07:56:08;12.20;;;2.50;;
5638;SDS011;2841;44.526;11.360;2023-05-16T07:58:38;4.50;;;2.37;;
5638;SDS011;2841;44.526;11.360;2023-05-16T08:01:05;3.70;;;1.70;;
5638;SDS011;2841;44.526;11.360;2023-05-16T08:03:32;5.27;;;2.10;;
5638;SDS011;2841;44.526;11.360;2023-05-16T08:06:00;6.10;;;2.73;;
5638;SDS011;2841;44.526;11.360;2023-05-16T08:08:28;3.70;;;1.73;;
5638;SDS011;2841;44.526;11.360;2023-05-16T08:10:55;4.20;;;1.90;;
5638;SDS011;2841;44.526;11.360;2023-05-16T08:13:22;6.73;;;1.90;;
5638;SDS011;2841;44.526;11.360;2023-05-16T08:15:50;8.00;;;2.40;;
5638;SDS011;2841;44.526;11.360;2023-05-16T08:18:17;3.43;;;2.03;;
5638;SDS011;2841;44.526;11.360;2023-05-16T08:20:44;4.63;;;2.23;;
5638;SDS011;2841;44.526;11.360;2023-05-16T08:23:12;5.23;;;2.00;;
5638;SDS011;2841;44.526;11.360;2023-05-16T08:25:40;4.53;;;2.10;;
5638;SDS011;2841;44.526;11.360;2023-05-16T08:28:07;3.43;;;2.00;;
5638;SDS011;2841;44.526;11.360;2023-05-16T08:30:34;5.00;;;2.27;;
5638;SDS011;2841;44.526;11.360;2023-05-16T08:33:04;4.50;;;2.53;;
5638;SDS011;2841;44.526;11.360;2023-05-16T08:35:31;4.50;;;2.17;;
5638;SDS011;2841;44.526;11.360;2023-05-16T08:37:59;6.63;;;2.80;;
5638;SDS011;2841;44.526;11.360;2023-05-16T08:40:27;10.33;;;2.10;;
5638;SDS011;2841;44.526;11.360;2023-05-16T08:42:55;3.33;;;2.00;;
5638;SDS011;2841;44.526;11.360;2023-05-16T08:45:22;3.93;;;2.70;;
5638;SDS011;2841;44.526;11.360;2023-05-16T08:47:50;4.47;;;2.30;;
5638;SDS011;2841;44.526;11.360;2023-05-16T08:50:21;4.97;;;2.70;;
5638;SDS011;2841;44.526;11.360;2023-05-16T08:52:50;3.40;;;2.07;;
5638;SDS011;2841;44.526;11.360;2023-05-16T08:55:18;12.43;;;2.23;;
5638;SDS011;2841;44.526;11.360;2023-05-16T08:57:47;5.50;;;2.33;;
5638;SDS011;2841;44.526;11.360;2023-05-16T09:00:15;4.77;;;3.10;;
5638;SDS011;2841;44.526;11.360;2023-05-16T09:02:43;4.00;;;2.60;;
5638;SDS011;2841;44.526;11.360;2023-05-16T09:05:11;6.43;;;2.37;;
5638;SDS011;2841;44.526;11.360;2023-05-16T09:07:41;17.10;;;2.60;;
5638;SDS011;2841;44.526;11.360;2023-05-16T09:10:09;7.83;;;2.77;;
5638;SDS011;2841;44.526;11.360;2023-05-16T09:12:38;8.17;;;2.53;;
5638;SDS011;2841;44.526;11.360;2023-05-16T09:15:06;3.60;;;2.60;;
5638;SDS011;2841;44.526;11.360;2023-05-16T09:17:34;5.10;;;2.70;;
5638;SDS011;2841;44.526;11.360;2023-05-16T09:20:09;7.47;;;2.90;;
5638;SDS011;2841;44.526;11.360;2023-05-16T09:22:38;4.27;;;2.90;;
5638;SDS011;2841;44.526;11.360;2023-05-16T09:25:07;6.17;;;2.93;;
5638;SDS011;2841;44.526;11.360;2023-05-16T09:27:34;6.73;;;2.23;;
5638;SDS011;2841;44.526;11.360;2023-05-16T09:30:02;4.33;;;2.63;;
5638;SDS011;2841;44.526;11.360;2023-05-16T09:32:30;3.30;;;2.00;;
5638;SDS011;2841;44.526;11.360;2023-05-16T09:34:57;10.20;;;2.60;;
5638;SDS011;2841;44.526;11.360;2023-05-16T09:37:24;6.47;;;3.47;;
5638;SDS011;2841;44.526;11.360;2023-05-16T09:39:52;7.50;;;2.47;;
5638;SDS011;2841;44.526;11.360;2023-05-16T09:42:21;8.73;;;2.30;;
5638;SDS011;2841;44.526;11.360;2023-05-16T09:44:48;4.93;;;2.47;;
5638;SDS011;2841;44.526;11.360;2023-05-16T09:47:16;5.00;;;2.17;;
5638;SDS011;2841;44.526;11.360;2023-05-16T09:49:44;5.40;;;2.63;;
5638;SDS011;2841;44.526;11.360;2023-05-16T09:52:12;5.07;;;2.10;;
5638;SDS011;2841;44.526;11.360;2023-05-16T09:54:40;3.53;;;1.83;;
5638;SDS011;2841;44.526;11.360;2023-05-16T09:57:07;2.73;;;1.63;;
5638;SDS011;2841;44.526;11.360;2023-05-16T09:59:36;5.50;;;2.30;;
5638;SDS011;2841;44.526;11.360;2023-05-16T10:02:04;7.90;;;2.30;;
5638;SDS011;2841;44.526;11.360;2023-05-16T10:04:32;19.73;;;2.70;;
5638;SDS011;2841;44.526;11.360;2023-05-16T10:07:00;5.40;;;2.83;;
5638;SDS011;2841;44.526;11.360;2023-05-16T10:09:28;5.23;;;2.40;;
5638;SDS011;2841;44.526;11.360;2023-05-16T10:11:58;4.20;;;2.33;;
5638;SDS011;2841;44.526;11.360;2023-05-16T10:14:28;3.90;;;2.70;;
5638;SDS011;2841;44.526;11.360;2023-05-16T10:16:57;6.07;;;3.70;;
5638;SDS011;2841;44.526;11.360;2023-05-16T10:19:24;4.80;;;3.47;;
5638;SDS011;2841;44.526;11.360;2023-05-16T10:21:52;6.53;;;2.67;;
5638;SDS011;2841;44.526;11.360;2023-05-16T10:24:25;6.17;;;2.90;;
5638;SDS011;2841;44.526;11.360;2023-05-16T10:26:56;14.10;;;3.27;;
5638;SDS011;2841;44.526;11.360;2023-05-16T10:29:23;6.43;;;3.10;;
5638;SDS011;2841;44.526;11.360;2023-05-16T10:31:51;6.73;;;3.07;;
5638;SDS011;2841;44.526;11.360;2023-05-16T10:34:19;6.70;;;3.67;;
5638;SDS011;2841;44.526;11.360;2023-05-16T10:36:47;6.70;;;2.97;;
5638;SDS011;2841;44.526;11.360;2023-05-16T10:39:14;5.27;;;3.03;;
5638;SDS011;2841;44.526;11.360;2023-05-16T10:41:42;6.70;;;3.20;;
5638;SDS011;2841;44.526;11.360;2023-05-16T10:44:13;4.00;;;2.53;;
5638;SDS011;2841;44.526;11.360;2023-05-16T10:46:41;3.67;;;2.40;;
5638;SDS011;2841;44.526;11.360;2023-05-16T10:49:19;9.07;;;2.97;;
5638;SDS011;2841;44.526;11.360;2023-05-16T10:51:52;10.17;;;5.83;;
5638;SDS011;2841;44.526;11.360;2023-05-16T10:54:32;4.73;;;2.40;;
5638;SDS011;2841;44.526;11.360;2023-05-16T10:57:04;5.93;;;2.37;;
5638;SDS011;2841;44.526;11.360;2023-05-16T10:59:38;6.23;;;2.50;;
5638;SDS011;2841;44.526;11.360;2023-05-16T11:02:20;9.57;;;2.83;;
5638;SDS011;2841;44.526;11.360;2023-05-16T11:04:53;5.00;;;2.40;;
5638;SDS011;2841;44.526;11.360;2023-05-16T11:07:21;7.33;;;2.83;;
5638;SDS011;2841;44.526;11.360;2023-05-16T11:09:52;11.23;;;2.83;;
5638;SDS011;2841;44.526;11.360;2023-05-16T11:12:43;5.60;;;3.00;;
5638;SDS011;2841;44.526;11.360;2023-05-16T11:15:18;4.87;;;3.43;;
5638;SDS011;2841;44.526;11.360;2023-05-16T11:17:49;4.10;;;2.80;;
5638;SDS011;2841;44.526;11.360;2023-05-16T11:20:29;7.30;;;2.93;;
5638;SDS011;2841;44.526;11.360;2023-05-16T11:23:17;6.47;;;3.20;;
5638;SDS011;2841;44.526;11.360;2023-05-16T11:25:46;7.77;;;3.13;;
5638;SDS011;2841;44.526;11.360;2023-05-16T11:28:15;3.40;;;2.50;;
5638;SDS011;2841;44.526;11.360;2023-05-16T11:30:44;4.10;;;2.40;;
5638;SDS011;2841;44.526;11.360;2023-05-16T11:33:12;4.97;;;2.07;;
5638;SDS011;2841;44.526;11.360;2023-05-16T11:35:41;5.87;;;2.50;;
5638;SDS011;2841;44.526;11.360;2023-05-16T11:38:11;4.30;;;2.50;;
5638;SDS011;2841;44.526;11.360;2023-05-16T11:40:43;4.07;;;2.43;;
5638;SDS011;2841;44.526;11.360;2023-05-16T11:43:10;8.00;;;3.07;;
5638;SDS011;2841;44.526;11.360;2023-05-16T11:45:43;5.43;;;3.03;;
5638;SDS011;2841;44.526;11.360;2023-05-16T11:48:10;4.50;;;2.50;;
5638;SDS011;2841;44.526;11.360;2023-05-16T11:50:37;5.77;;;2.03;;
5638;SDS011;2841;44.526;11.360;2023-05-16T11:53:06;4.17;;;2.30;;
5638;SDS011;2841;44.526;11.360;2023-05-16T11:55:33;6.63;;;2.33;;
5638;SDS011;2841;44.526;11.360;2023-05-16T11:58:01;6.87;;;2.67;;
5638;SDS011;2841;44.526;11.360;2023-05-16T12:00:28;3.67;;;2.33;;
5638;SDS011;2841;44.526;11.360;2023-05-16T12:02:59;5.20;;;2.53;;
5638;SDS011;2841;44.526;11.360;2023-05-16T12:05:28;4.63;;;2.07;;
5638;SDS011;2841;44.526;11.360;2023-05-16T12:07:56;3.03;;;2.10;;
5638;SDS011;2841;44.526;11.360;2023-05-16T12:10:25;7.60;;;2.53;;
5638;SDS011;2841;44.526;11.360;2023-05-16T12:12:52;4.17;;;2.70;;
5638;SDS011;2841;44.526;11.360;2023-05-16T12:15:20;4.63;;;2.47;;
5638;SDS011;2841;44.526;11.360;2023-05-16T12:17:47;4.13;;;2.30;;
5638;SDS011;2841;44.526;11.360;2023-05-16T12:20:14;10.00;;;2.40;;
5638;SDS011;2841;44.526;11.360;2023-05-16T12:22:42;8.63;;;2.13;;
5638;SDS011;2841;44.526;11.360;2023-05-16T12:28:02;3.20;;;1.40;;
5638;SDS011;2841;44.526;11.360;2023-05-16T12:30:31;5.20;;;2.20;;
5638;SDS011;2841;44.526;11.360;2023-05-16T12:32:59;4.23;;;1.20;;
5638;SDS011;2841;44.526;11.360;2023-05-16T12:35:28;3.00;;;1.27;;
5638;SDS011;2841;44.526;11.360;2023-05-16T12:37:57;2.80;;;1.60;;
5638;SDS011;2841;44.526;11.360;2023-05-16T12:40:26;8.93;;;1.60;;
5638;SDS011;2841;44.526;11.360;2023-05-16T12:42:55;3.20;;;2.00;;
5638;SDS011;2841;44.526;11.360;2023-05-16T12:45:22;4.20;;;1.57;;
5638;SDS011;2841;44.526;11.360;2023-05-16T12:47:51;2.47;;;1.37;;
5638;SDS011;2841;44.526;11.360;2023-05-16T12:50:18;5.63;;;1.97;;
5638;SDS011;2841;44.526;11.360;2023-05-16T12:52:47;6.40;;;1.50;;
5638;SDS011;2841;44.526;11.360;2023-05-16T12:55:15;3.60;;;1.20;;
5638;SDS011;2841;44.526;11.360;2023-05-16T12:57:42;3.40;;;0.93;;
5638;SDS011;2841;44.526;11.360;2023-05-16T13:00:13;2.33;;;1.20;;
5638;SDS011;2841;44.526;11.360;2023-05-16T13:02:42;3.50;;;1.30;;
5638;SDS011;2841;44.526;11.360;2023-05-16T13:05:10;4.90;;;1.40;;
5638;SDS011;2841;44.526;11.360;2023-05-16T13:07:37;5.47;;;1.50;;
5638;SDS011;2841;44.526;11.360;2023-05-16T13:10:05;4.00;;;1.97;;
5638;SDS011;2841;44.526;11.360;2023-05-16T13:12:34;5.50;;;1.87;;
5638;SDS011;2841;44.526;11.360;2023-05-16T13:15:02;9.70;;;1.70;;
5638;SDS011;2841;44.526;11.360;2023-05-16T13:17:32;7.40;;;2.30;;
5638;SDS011;2841;44.526;11.360;2023-05-16T13:19:59;4.73;;;1.90;;
5638;SDS011;2841;44.526;11.360;2023-05-16T13:22:28;3.30;;;1.53;;
5638;SDS011;2841;44.526;11.360;2023-05-16T13:24:55;3.60;;;1.70;;
5638;SDS011;2841;44.526;11.360;2023-05-16T13:27:22;3.20;;;1.80;;
5638;SDS011;2841;44.526;11.360;2023-05-16T13:29:49;5.10;;;1.93;;
5638;SDS011;2841;44.526;11.360;2023-05-16T13:32:16;4.23;;;1.70;;
5638;SDS011;2841;44.526;11.360;2023-05-16T13:34:45;8.33;;;2.30;;
5638;SDS011;2841;44.526;11.360;2023-05-16T13:37:12;6.17;;;2.13;;
5638;SDS011;2841;44.526;11.360;2023-05-16T13:39:39;4.20;;;1.67;;
5638;SDS011;2841;44.526;11.360;2023-05-16T13:42:06;3.73;;;1.80;;
5638;SDS011;2841;44.526;11.360;2023-05-16T13:44:34;3.97;;;1.57;;
5638;SDS011;2841;44.526;11.360;2023-05-16T13:47:01;7.73;;;3.00;;
5638;SDS011;2841;44.526;11.360;2023-05-16T13:49:28;3.50;;;2.23;;
5638;SDS011;2841;44.526;11.360;2023-05-16T13:51:56;8.60;;;3.33;;
5638;SDS011;2841;44.526;11.360;2023-05-16T13:54:25;5.37;;;2.80;;
5638;SDS011;2841;44.526;11.360;2023-05-16T13:56:52;5.33;;;2.17;;
5638;SDS011;2841;44.526;11.360;2023-05-16T13:59:19;4.53;;;1.70;;
5638;SDS011;2841;44.526;11.360;2023-05-16T14:01:46;4.53;;;1.87;;
5638;SDS011;2841;44.526;11.360;2023-05-16T14:04:13;5.97;;;2.53;;
5638;SDS011;2841;44.526;11.360;2023-05-16T14:06:40;5.23;;;2.37;;
5638;SDS011;2841;44.526;11.360;2023-05-16T14:09:09;3.70;;;2.00;;
5638;SDS011;2841;44.526;11.360;2023-05-16T14:11:37;6.47;;;4.17;;
5638;SDS011;2841;44.526;11.360;2023-05-16T14:14:04;8.90;;;4.00;;
5638;SDS011;2841;44.526;11.360;2023-05-16T14:16:31;4.83;;;2.40;;
5638;SDS011;2841;44.526;11.360;2023-05-16T14:18:58;3.73;;;2.03;;
5638;SDS011;2841;44.526;11.360;2023-05-16T14:21:25;3.50;;;1.63;;
5638;SDS011;2841;44.526;11.360;2023-05-16T14:23:54;2.90;;;1.10;;
5638;SDS011;2841;44.526;11.360;2023-05-16T14:26:23;2.37;;;1.10;;
5638;SDS011;2841;44.526;11.360;2023-05-16T14:28:50;5.43;;;1.30;;
5638;SDS011;2841;44.526;11.360;2023-05-16T14:31:17;2.97;;;0.90;;
5638;SDS011;2841;44.526;11.360;2023-05-16T14:33:44;4.07;;;1.23;;
5638;SDS011;2841;44.526;11.360;2023-05-16T14:36:11;4.40;;;0.90;;
5638;SDS011;2841;44.526;11.360;2023-05-16T14:38:38;2.73;;;1.60;;
5638;SDS011;2841;44.526;11.360;2023-05-16T14:41:06;3.10;;;1.27;;
5638;SDS011;2841;44.526;11.360;2023-05-16T14:43:34;2.37;;;0.93;;
5638;SDS011;2841;44.526;11.360;2023-05-16T14:46:03;4.50;;;0.90;;
5638;SDS011;2841;44.526;11.360;2023-05-16T14:48:31;1.53;;;0.57;;
5638;SDS011;2841;44.526;11.360;2023-05-16T14:50:58;2.20;;;1.00;;
5638;SDS011;2841;44.526;11.360;2023-05-16T14:53:25;3.60;;;0.80;;
5638;SDS011;2841;44.526;11.360;2023-05-16T14:55:52;7.27;;;1.03;;
5638;SDS011;2841;44.526;11.360;2023-05-16T14:58:19;2.33;;;0.80;;
5638;SDS011;2841;44.526;11.360;2023-05-16T15:00:48;1.70;;;0.80;;
5638;SDS011;2841;44.526;11.360;2023-05-16T15:03:15;2.03;;;0.60;;
5638;SDS011;2841;44.526;11.360;2023-05-16T15:05:43;2.10;;;0.80;;
5638;SDS011;2841;44.526;11.360;2023-05-16T15:08:10;3.60;;;0.90;;
5638;SDS011;2841;44.526;11.360;2023-05-16T15:10:37;4.80;;;0.67;;